createdAt,value
2019-04-27T00:00:15.007Z,10.07
2019-04-27T00:02:55.818Z,9.60
2019-04-27T00:05:37.910Z,10.27
2019-04-27T00:08:18.631Z,10.73
2019-04-27T00:11:15.601Z,11.00
2019-04-27T00:13:46.166Z,10.77
2019-04-27T00:16:40.483Z,10.40
2019-04-27T00:19:43.823Z,10.87
2019-04-27T00:22:24.135Z,10.43
2019-04-27T00:24:53.238Z,10.67
2019-04-27T00:27:23.441Z,10.13
2019-04-27T00:29:53.551Z,10.80
2019-04-27T00:32:23.113Z,11.30
2019-04-27T00:34:53.246Z,9.87
2019-04-27T00:37:30.112Z,11.10
2019-04-27T00:40:06.623Z,10.80
2019-04-27T00:42:35.824Z,11.27
2019-04-27T00:45:05.634Z,10.37
2019-04-27T00:47:35.082Z,10.68
2019-04-27T00:50:04.464Z,10.93
2019-04-27T00:52:35.368Z,10.90
2019-04-27T00:55:04.530Z,11.03
2019-04-27T00:57:43.615Z,10.57
2019-04-27T01:00:30.580Z,11.13
2019-04-27T01:03:07.804Z,11.27
2019-04-27T01:05:36.862Z,10.83
2019-04-27T01:08:05.657Z,10.73
2019-04-27T01:10:34.533Z,11.17
2019-04-27T01:13:03.906Z,11.90
2019-04-27T01:15:33.955Z,11.70
2019-04-27T01:18:12.335Z,11.07
2019-04-27T01:20:33.844Z,11.40
2019-04-27T01:23:02.671Z,11.33
2019-04-27T01:25:48.848Z,10.53
2019-04-27T01:28:29.087Z,11.50
2019-04-27T01:31:02.488Z,10.90
2019-04-27T01:33:33.927Z,10.67
2019-04-27T01:36:02.635Z,9.90
2019-04-27T01:38:31.358Z,10.80
2019-04-27T01:41:00.571Z,11.07
2019-04-27T01:43:30.273Z,10.40
2019-04-27T01:46:01.028Z,11.07
2019-04-27T01:48:30.570Z,11.73
2019-04-27T01:51:00.687Z,11.33
2019-04-27T01:53:30.468Z,11.53
2019-04-27T01:55:59.463Z,11.27
2019-04-27T01:58:29.291Z,11.83
2019-04-27T02:01:16.294Z,11.90
2019-04-27T02:04:02.687Z,10.70
2019-04-27T02:06:31.601Z,11.90
2019-04-27T02:09:00.413Z,11.97
2019-04-27T02:11:29.256Z,11.30
2019-04-27T02:13:59.429Z,11.60
2019-04-27T02:16:30.348Z,11.30
2019-04-27T02:18:58.900Z,11.93
2019-04-27T02:21:29.453Z,12.67
2019-04-27T02:23:59.798Z,12.43
2019-04-27T02:26:29.898Z,13.60
2019-04-27T02:29:09.517Z,12.70
2019-04-27T02:32:06.362Z,12.97
2019-04-27T02:34:42.807Z,13.60
2019-04-27T02:37:11.842Z,14.23
2019-04-27T02:39:42.389Z,13.77
2019-04-27T02:42:11.548Z,14.07
2019-04-27T02:44:41.161Z,15.20
2019-04-27T02:47:12.054Z,13.97
2019-04-27T02:49:40.940Z,14.20
2019-04-27T02:52:31.515Z,15.47
2019-04-27T02:55:00.527Z,14.57
2019-04-27T02:57:30.089Z,15.77
2019-04-27T03:00:00.005Z,16.27
2019-04-27T03:02:40.410Z,15.57
2019-04-27T03:05:10.900Z,16.20
2019-04-27T03:07:42.877Z,16.90
2019-04-27T03:10:11.485Z,15.57
2019-04-27T03:12:45.786Z,16.03
2019-04-27T03:15:32.334Z,16.37
2019-04-27T03:18:15.199Z,18.17
2019-04-27T03:20:56.161Z,17.97
2019-04-27T03:23:25.100Z,17.83
2019-04-27T03:26:21.833Z,17.27
2019-04-27T03:28:50.801Z,18.53
2019-04-27T03:31:21.510Z,18.87
2019-04-27T03:33:57.945Z,19.77
2019-04-27T03:36:21.644Z,20.63
2019-04-27T03:38:50.663Z,20.23
2019-04-27T03:41:19.442Z,20.10
2019-04-27T03:43:50.323Z,19.77
2019-04-27T03:46:20.407Z,21.50
2019-04-27T03:48:49.877Z,19.10
2019-04-27T03:51:35.038Z,20.00
2019-04-27T03:54:22.298Z,19.03
2019-04-27T03:57:02.396Z,21.07
2019-04-27T03:59:51.865Z,20.00
2019-04-27T04:02:20.668Z,19.60
2019-04-27T04:04:50.696Z,20.70
2019-04-27T04:07:19.866Z,20.00
2019-04-27T04:09:50.316Z,21.97
2019-04-27T04:12:46.019Z,21.70
2019-04-27T04:15:25.099Z,19.13
2019-04-27T04:17:53.816Z,20.80
2019-04-27T04:20:22.652Z,22.63
2019-04-27T04:22:51.657Z,23.67
2019-04-27T04:25:20.379Z,21.87
2019-04-27T04:27:52.257Z,22.63
2019-04-27T04:30:21.235Z,22.70
2019-04-27T04:32:51.999Z,23.17
2019-04-27T04:35:22.212Z,24.93
2019-04-27T04:37:52.928Z,23.90
2019-04-27T04:40:25.604Z,24.97
2019-04-27T04:43:04.085Z,25.03
2019-04-27T04:45:52.795Z,23.33
2019-04-27T04:48:21.792Z,26.63
2019-04-27T04:50:50.613Z,25.57
2019-04-27T04:53:20.567Z,27.80
2019-04-27T04:55:49.647Z,27.37
2019-04-27T04:58:21.002Z,26.43
2019-04-27T05:00:50.164Z,26.40
2019-04-27T05:03:22.173Z,24.23
2019-04-27T05:05:51.114Z,27.07
2019-04-27T05:08:19.906Z,26.53
2019-04-27T05:10:49.758Z,27.93
2019-04-27T05:13:19.305Z,25.30
2019-04-27T05:15:48.832Z,27.50
2019-04-27T05:18:19.138Z,27.53
2019-04-27T05:20:54.697Z,25.07
2019-04-27T05:23:23.618Z,27.23
2019-04-27T05:25:52.405Z,24.33
2019-04-27T05:28:23.953Z,25.60
2019-04-27T05:30:52.778Z,25.07
2019-04-27T05:33:21.486Z,26.27
2019-04-27T05:35:50.281Z,25.93
2019-04-27T05:38:19.485Z,22.63
2019-04-27T05:40:49.991Z,23.87
2019-04-27T05:43:20.613Z,24.53
2019-04-27T05:46:44.698Z,23.10
2019-04-27T05:49:23.403Z,24.10
2019-04-27T05:51:52.218Z,23.90
2019-04-27T05:54:21.137Z,22.83
2019-04-27T05:56:49.968Z,23.37
2019-04-27T05:59:19.792Z,22.90
2019-04-27T06:01:51.844Z,22.10
2019-04-27T06:04:20.776Z,23.13
2019-04-27T06:06:50.000Z,23.50
2019-04-27T06:09:19.530Z,22.50
2019-04-27T06:11:50.607Z,22.80
2019-04-27T06:14:19.346Z,22.97
2019-04-27T06:16:49.381Z,22.10
2019-04-27T06:21:54.721Z,20.85
2019-04-27T06:24:25.879Z,20.70
2019-04-27T06:26:54.862Z,21.47
2019-04-27T06:29:24.001Z,20.80
2019-04-27T06:31:52.951Z,18.83
2019-04-27T06:34:21.813Z,19.83
2019-04-27T06:36:50.752Z,18.97
2019-04-27T06:39:22.764Z,18.93
2019-04-27T06:41:51.477Z,19.47
2019-04-27T06:44:22.434Z,18.80
2019-04-27T06:46:51.421Z,18.83
2019-04-27T06:49:20.299Z,18.90
2019-04-27T06:51:51.253Z,17.43
2019-04-27T06:54:21.426Z,17.10
2019-04-27T06:56:53.647Z,17.60
2019-04-27T07:02:50.325Z,16.70
2019-04-27T07:05:20.427Z,16.17
2019-04-27T07:07:49.441Z,15.90
2019-04-27T07:10:18.689Z,15.17
2019-04-27T07:12:49.110Z,15.43
2019-04-27T07:15:20.170Z,15.43
2019-04-27T07:17:48.978Z,14.07
2019-04-27T07:20:19.467Z,13.20
2019-04-27T07:22:49.673Z,13.50
2019-04-27T07:25:18.940Z,13.93
2019-04-27T07:27:49.398Z,13.63
2019-04-27T07:30:19.099Z,12.60
2019-04-27T07:32:49.077Z,13.50
2019-04-27T07:35:25.003Z,12.37
2019-04-27T07:37:56.423Z,13.60
2019-04-27T07:40:25.257Z,10.37
2019-04-27T07:42:59.721Z,11.53
2019-04-27T07:45:32.898Z,11.30
2019-04-27T07:48:04.857Z,11.57
2019-04-27T07:50:34.805Z,10.90
2019-04-27T07:53:14.138Z,11.10
2019-04-27T07:55:43.227Z,10.83
2019-04-27T07:58:14.231Z,10.40
2019-04-27T08:00:43.068Z,9.60
2019-04-27T08:03:12.044Z,10.90
2019-04-27T08:05:42.456Z,10.03
2019-04-27T08:08:11.465Z,9.60
2019-04-27T08:10:40.486Z,10.07
2019-04-27T08:13:09.639Z,9.60
2019-04-27T08:15:39.624Z,11.77
2019-04-27T08:18:09.061Z,10.87
2019-04-27T08:20:39.082Z,11.30
2019-04-27T08:23:09.808Z,12.53
2019-04-27T08:25:40.848Z,11.83
2019-04-27T08:28:28.779Z,12.83
2019-04-27T08:31:29.884Z,11.37
2019-04-27T08:34:03.544Z,13.23
2019-04-27T08:36:36.450Z,16.63
2019-04-27T08:39:09.249Z,17.77
2019-04-27T08:41:40.024Z,19.07
2019-04-27T08:44:12.266Z,18.70
2019-04-27T08:46:47.132Z,18.37
2019-04-27T08:49:18.911Z,17.20
2019-04-27T08:51:57.171Z,16.93
2019-04-27T08:54:19.322Z,17.23
2019-04-27T08:56:49.490Z,16.83
2019-04-27T08:59:19.459Z,17.00
2019-04-27T09:01:49.308Z,17.60
2019-04-27T09:04:20.107Z,18.97
2019-04-27T09:06:59.769Z,17.40
2019-04-27T09:14:47.215Z,17.13
2019-04-27T09:17:20.881Z,16.27
2019-04-27T09:20:00.976Z,14.60
2019-04-27T09:22:29.778Z,13.63
2019-04-27T09:24:59.510Z,14.23
2019-04-27T09:27:29.003Z,14.03
2019-04-27T09:29:59.076Z,14.27
2019-04-27T09:32:31.010Z,16.40
2019-04-27T09:34:59.773Z,13.50
2019-04-27T09:37:28.612Z,12.37
2019-04-27T09:39:58.779Z,11.23
2019-04-27T09:42:27.699Z,11.33
2019-04-27T09:44:57.261Z,11.13
2019-04-27T09:47:26.640Z,8.10
2019-04-27T09:49:56.533Z,9.13
2019-04-27T09:52:26.972Z,9.97
2019-04-27T09:54:56.081Z,12.30
2019-04-27T09:57:25.967Z,9.73
2019-04-27T09:59:56.446Z,10.27
2019-04-27T10:02:26.979Z,11.03
2019-04-27T10:04:56.558Z,13.17
2019-04-27T10:07:26.959Z,12.40
2019-04-27T10:09:56.705Z,11.40
2019-04-27T10:12:26.138Z,10.87
2019-04-27T10:14:56.021Z,10.57
2019-04-27T10:17:24.739Z,12.50
2019-04-27T10:19:53.459Z,11.97
2019-04-27T10:22:22.616Z,13.03
2019-04-27T10:24:51.578Z,12.10
2019-04-27T10:27:20.341Z,12.50
2019-04-27T10:29:49.649Z,12.13
2019-04-27T10:32:18.511Z,11.40
2019-04-27T10:34:47.388Z,12.07
2019-04-27T10:37:16.233Z,12.40
2019-04-27T10:39:45.984Z,11.30
2019-04-27T10:42:15.228Z,11.13
2019-04-27T10:44:45.991Z,10.43
2019-04-27T10:47:15.880Z,9.90
2019-04-27T10:49:48.007Z,10.77
2019-04-27T10:52:15.384Z,9.67
2019-04-27T10:54:59.279Z,9.53
2019-04-27T10:57:39.358Z,9.57
2019-04-27T11:00:11.613Z,10.70
2019-04-27T11:02:42.470Z,9.80
2019-04-27T11:05:23.313Z,10.03
2019-04-27T11:07:52.576Z,8.90
2019-04-27T11:10:21.790Z,9.30
2019-04-27T11:12:50.652Z,9.10
2019-04-27T11:15:19.627Z,8.97
2019-04-27T11:17:48.525Z,8.57
2019-04-27T11:20:27.725Z,8.20
2019-04-27T11:23:07.179Z,7.57
2019-04-27T11:25:29.304Z,7.13
2019-04-27T11:27:58.077Z,6.20
2019-04-27T11:30:27.506Z,6.00
2019-04-27T11:32:58.988Z,3.27
2019-04-27T11:35:46.963Z,4.23
2019-04-27T11:38:17.020Z,5.60
2019-04-27T11:40:46.610Z,5.40
2019-04-27T11:43:16.244Z,5.37
2019-04-27T11:45:45.790Z,4.70
2019-04-27T11:48:16.194Z,3.60
2019-04-27T11:50:46.139Z,3.40
2019-04-27T11:53:22.771Z,3.37
2019-04-27T11:55:46.250Z,2.53
2019-04-27T11:58:18.202Z,3.00
2019-04-27T12:00:47.317Z,2.50
2019-04-27T12:03:16.654Z,2.37
2019-04-27T12:05:46.457Z,3.00
2019-04-27T12:08:16.218Z,2.80
2019-04-27T12:10:46.351Z,2.50
2019-04-27T12:13:16.377Z,2.60
2019-04-27T12:15:46.467Z,2.93
2019-04-27T12:18:15.340Z,2.60
2019-04-27T12:20:45.777Z,2.20
2019-04-27T12:23:16.496Z,2.43
2019-04-27T12:25:46.247Z,2.57
2019-04-27T12:28:23.180Z,2.23
2019-04-27T12:31:09.997Z,2.80
2019-04-27T12:33:39.507Z,2.07
2019-04-27T12:36:08.560Z,1.80
2019-04-27T12:38:37.591Z,2.33
2019-04-27T12:41:10.802Z,2.20
2019-04-27T12:43:40.703Z,1.60
2019-04-27T12:46:09.970Z,2.23
2019-04-27T12:48:40.420Z,1.50
2019-04-27T12:51:09.624Z,1.73
2019-04-27T12:54:12.880Z,1.63
2019-04-27T12:57:03.659Z,1.97
2019-04-27T12:59:50.249Z,1.40
2019-04-27T13:02:21.020Z,1.20
2019-04-27T13:04:49.880Z,2.20
2019-04-27T13:07:18.648Z,2.20
2019-04-27T13:09:47.829Z,1.47
2019-04-27T13:12:16.644Z,0.70
2019-04-27T13:14:45.805Z,0.70
2019-04-27T13:17:17.735Z,0.87
2019-04-27T13:19:46.579Z,0.30
2019-04-27T13:22:16.528Z,0.60
2019-04-27T13:24:45.931Z,0.80
2019-04-27T13:27:16.575Z,0.60
2019-04-27T13:29:46.663Z,1.10
2019-04-27T13:32:16.448Z,0.80
2019-04-27T13:34:56.677Z,0.53
2019-04-27T13:37:37.105Z,0.60
2019-04-27T13:40:09.643Z,0.67
2019-04-27T13:42:44.711Z,1.33
2019-04-27T13:45:21.343Z,0.67
2019-04-27T13:47:56.754Z,0.90
2019-04-27T13:50:39.445Z,1.00
2019-04-27T13:53:08.549Z,0.80
2019-04-27T13:55:37.262Z,0.80
2019-04-27T13:58:06.080Z,0.80
2019-04-27T14:00:37.767Z,0.70
2019-04-27T14:03:05.530Z,0.70
2019-04-27T14:05:34.282Z,1.20
2019-04-27T14:08:03.123Z,0.87
2019-04-27T14:10:32.259Z,0.60
2019-04-27T14:13:01.136Z,0.70
2019-04-27T14:15:29.964Z,0.60
2019-04-27T14:17:59.167Z,1.00
2019-04-27T14:20:28.745Z,0.87
2019-04-27T14:23:12.476Z,0.90
2019-04-27T14:25:41.789Z,1.10
2019-04-27T14:28:10.553Z,0.90
2019-04-27T14:30:40.053Z,1.00
2019-04-27T14:33:09.065Z,1.00
2019-04-27T14:35:37.942Z,1.10
2019-04-27T14:38:06.651Z,0.83
2019-04-27T14:40:35.431Z,1.10
2019-04-27T14:43:04.258Z,0.87
2019-04-27T14:45:33.044Z,1.40
2019-04-27T14:48:01.768Z,1.30
2019-04-27T14:50:30.526Z,1.43
2019-04-27T14:52:59.335Z,1.27
2019-04-27T14:55:29.983Z,0.90
2019-04-27T14:57:58.717Z,1.30
2019-04-27T15:00:28.772Z,3.13
2019-04-27T15:02:59.130Z,0.60
2019-04-27T15:05:28.196Z,0.60
2019-04-27T15:07:56.984Z,0.20
2019-04-27T15:10:27.091Z,0.20
2019-04-27T15:12:56.518Z,0.20
2019-04-27T15:15:28.340Z,0.27
2019-04-27T15:17:57.574Z,0.30
2019-04-27T15:20:32.883Z,0.73
2019-04-27T15:23:01.622Z,0.30
2019-04-27T15:25:35.073Z,0.10
2019-04-27T15:28:03.301Z,0.40
2019-04-27T15:30:50.055Z,0.10
2019-04-27T15:33:40.901Z,0.10
2019-04-27T15:36:14.699Z,0.20
2019-04-27T15:38:47.706Z,0.20
2019-04-27T15:41:24.324Z,0.10
2019-04-27T15:43:53.194Z,0.20
2019-04-27T15:46:22.138Z,0.10
2019-04-27T15:48:54.137Z,0.10
2019-04-27T15:51:21.892Z,0.30
2019-04-27T15:53:53.823Z,0.20
2019-04-27T15:56:22.202Z,0.20
2019-04-27T15:58:51.018Z,0.20
2019-04-27T16:01:19.806Z,0.20
2019-04-27T16:03:51.888Z,0.20
2019-04-27T16:06:19.714Z,0.10
2019-04-27T16:08:52.518Z,0.20
2019-04-27T16:11:21.340Z,0.27
2019-04-27T16:13:50.480Z,0.20
2019-04-27T16:16:19.666Z,0.20
2019-04-27T16:18:49.118Z,0.30
2019-04-27T16:21:20.037Z,0.30
2019-04-27T16:23:48.514Z,0.20
2019-04-27T16:26:18.328Z,0.20
2019-04-27T16:28:52.928Z,0.20
2019-04-27T16:31:18.676Z,0.40
2019-04-27T16:33:49.712Z,0.30
2019-04-27T16:36:19.726Z,0.40
2019-04-27T16:39:03.597Z,0.27
2019-04-27T16:41:32.977Z,0.47
2019-04-27T16:44:06.984Z,0.60
2019-04-27T16:46:34.828Z,0.40
2019-04-27T16:49:07.260Z,0.40
2019-04-27T16:51:36.851Z,0.50
2019-04-27T16:54:11.104Z,0.70
2019-04-27T16:56:38.057Z,0.60
2019-04-27T17:01:40.033Z,0.60
2019-04-27T17:04:13.525Z,0.50
2019-04-27T17:06:45.993Z,0.62
2019-04-27T17:09:11.778Z,0.40
2019-04-27T17:11:43.848Z,0.70
2019-04-27T17:12:40.260Z,0.40
2019-04-27T17:14:28.985Z,0.50
2019-04-27T17:17:17.823Z,0.50
2019-04-27T17:19:51.928Z,0.73
2019-04-27T17:22:21.009Z,0.40
2019-04-27T17:24:50.130Z,0.40
2019-04-27T17:27:28.495Z,0.50
2019-04-27T17:29:58.452Z,1.03
2019-04-27T17:32:33.490Z,0.50
2019-04-27T17:35:04.996Z,0.40
2019-04-27T17:37:33.773Z,0.70
2019-04-27T17:40:01.511Z,0.63
2019-04-27T17:42:30.760Z,0.40
2019-04-27T17:45:00.586Z,0.50
2019-04-27T17:47:30.125Z,0.50
2019-04-27T17:49:59.068Z,0.77
2019-04-27T17:52:27.841Z,0.50
2019-04-27T17:54:58.999Z,0.67
2019-04-27T17:57:30.235Z,0.50
2019-04-27T18:00:03.123Z,0.37
2019-04-27T18:02:29.418Z,0.50
2019-04-27T18:04:58.830Z,0.63
2019-04-27T18:07:30.116Z,0.60
2019-04-27T18:09:58.581Z,0.60
2019-04-27T18:12:28.549Z,0.63
2019-04-27T18:14:58.121Z,0.60
2019-04-27T18:17:28.752Z,0.43
2019-04-27T18:20:00.367Z,0.50
2019-04-27T18:22:36.507Z,0.33
2019-04-27T18:25:06.709Z,0.20
2019-04-27T18:27:59.978Z,0.13
2019-04-27T18:30:44.839Z,0.10
2019-04-27T18:33:18.470Z,0.20
2019-04-27T18:35:49.038Z,0.10
2019-04-27T18:38:18.106Z,0.20
2019-04-27T18:40:48.733Z,0.20
2019-04-27T18:43:18.710Z,0.10
2019-04-27T18:45:48.602Z,0.20
2019-04-27T18:48:25.021Z,0.20
2019-04-27T18:51:03.764Z,0.30
2019-04-27T18:53:32.990Z,0.20
2019-04-27T18:56:05.308Z,0.30
2019-04-27T18:58:32.431Z,0.20
2019-04-27T19:01:01.307Z,0.27
2019-04-27T19:03:31.734Z,0.30
2019-04-27T19:06:00.550Z,0.33
2019-04-27T19:08:29.269Z,0.40
2019-04-27T19:11:00.087Z,0.27
2019-04-27T19:13:28.654Z,0.50
2019-04-27T19:15:57.896Z,0.40
2019-04-27T19:18:28.102Z,0.40
2019-04-27T19:20:58.447Z,0.40
2019-04-27T19:23:28.598Z,0.80
2019-04-27T19:26:16.291Z,0.60
2019-04-27T19:28:59.086Z,0.87
2019-04-27T19:31:31.767Z,0.30
2019-04-27T19:34:00.617Z,0.50
2019-04-27T19:36:30.406Z,0.67
2019-04-27T19:38:59.484Z,0.60
2019-04-27T19:41:28.856Z,0.50
2019-04-27T19:43:59.740Z,0.80
2019-04-27T19:46:28.577Z,0.70
2019-04-27T19:48:59.275Z,0.67
2019-04-27T19:51:28.354Z,0.47
2019-04-27T19:53:58.144Z,1.17
2019-04-27T19:56:28.343Z,0.57
2019-04-27T19:58:59.434Z,0.40
2019-04-27T20:01:34.339Z,0.80
2019-04-27T20:04:08.642Z,0.53
2019-04-27T20:06:38.433Z,0.60
2019-04-27T20:09:19.111Z,0.90
2019-04-27T20:11:47.989Z,0.70
2019-04-27T20:14:16.890Z,0.53
2019-04-27T20:16:45.835Z,0.90
2019-04-27T20:19:14.742Z,0.63
2019-04-27T20:21:43.596Z,0.80
2019-04-27T20:24:12.754Z,0.70
2019-04-27T20:26:41.567Z,0.50
2019-04-27T20:29:11.806Z,0.73
2019-04-27T20:31:41.060Z,1.00
2019-04-27T20:34:09.986Z,0.90
2019-04-27T20:36:38.805Z,0.83
2019-04-27T20:39:07.740Z,0.80
2019-04-27T20:41:36.634Z,1.27
2019-04-27T20:44:05.989Z,0.80
2019-04-27T20:46:34.969Z,0.90
2019-04-27T20:49:15.471Z,1.10
2019-04-27T20:52:15.541Z,0.77
2019-04-27T20:54:44.383Z,0.80
2019-04-27T20:57:13.597Z,1.10
2019-04-27T20:59:42.821Z,1.15
2019-04-27T21:02:32.095Z,1.10
2019-04-27T21:05:12.610Z,0.83
2019-04-27T21:07:44.959Z,1.00
2019-04-27T21:10:13.840Z,0.80
2019-04-27T21:12:43.061Z,0.67
2019-04-27T21:15:12.993Z,0.90
2019-04-27T21:17:42.888Z,0.80
2019-04-27T21:20:13.267Z,0.90
2019-04-27T21:22:42.104Z,1.10
2019-04-27T21:25:11.839Z,1.00
2019-04-27T21:27:41.194Z,1.13
2019-04-27T21:30:11.579Z,1.10
2019-04-27T21:32:40.562Z,1.07
2019-04-27T21:35:11.013Z,0.90
2019-04-27T21:37:40.909Z,1.10
2019-04-27T21:40:17.908Z,0.80
2019-04-27T21:42:47.377Z,0.90
2019-04-27T21:45:16.819Z,0.93
2019-04-27T21:47:45.820Z,1.20
2019-04-27T21:50:15.902Z,1.03
2019-04-27T21:52:55.252Z,1.03
2019-04-27T21:55:24.251Z,1.33
2019-04-27T21:57:53.090Z,1.20
2019-04-27T22:00:46.263Z,1.20
2019-04-27T22:03:16.067Z,1.20
2019-04-27T22:05:44.895Z,1.40
2019-04-27T22:08:13.867Z,1.10
2019-04-27T22:10:43.198Z,1.43
2019-04-27T22:13:12.023Z,1.30
2019-04-27T22:15:41.626Z,1.20
2019-04-27T22:18:11.147Z,1.50
2019-04-27T22:20:42.391Z,1.40
2019-04-27T22:23:22.977Z,1.40
2019-04-27T22:25:54.145Z,1.43
2019-04-27T22:28:21.864Z,1.63
2019-04-27T22:30:50.666Z,1.30
2019-04-27T22:33:21.329Z,1.50
2019-04-27T22:35:51.657Z,1.40
2019-04-27T22:38:20.777Z,1.80
2019-04-27T22:40:59.147Z,1.50
2019-04-27T22:43:45.716Z,1.80
2019-04-27T22:46:17.189Z,2.00
2019-04-27T22:48:46.319Z,1.77
2019-04-27T22:51:15.530Z,1.87
2019-04-27T22:53:44.675Z,1.80
2019-04-27T22:56:18.662Z,1.83
2019-04-27T22:59:01.030Z,1.40
2019-04-27T23:01:46.393Z,2.00
2019-04-27T23:04:17.813Z,1.80
2019-04-27T23:06:46.670Z,2.00
2019-04-27T23:09:15.484Z,1.67
2019-04-27T23:11:44.346Z,2.13
2019-04-27T23:14:13.113Z,1.50
2019-04-27T23:16:43.666Z,1.63
2019-04-27T23:19:12.582Z,2.10
2019-04-27T23:21:41.433Z,1.80
2019-04-27T23:24:10.199Z,1.50
2019-04-27T23:26:39.005Z,1.60
2019-04-27T23:29:15.169Z,1.40
2019-04-27T23:31:52.730Z,1.30
2019-04-27T23:34:21.708Z,1.60
2019-04-27T23:36:51.797Z,1.50
2019-04-27T23:39:20.648Z,1.43
2019-04-27T23:41:49.509Z,1.47
2019-04-27T23:44:18.552Z,1.73
2019-04-27T23:46:47.626Z,1.50
2019-04-27T23:49:16.513Z,1.67
2019-04-27T23:51:50.427Z,1.20
2019-04-27T23:54:19.512Z,1.50
2019-04-27T23:56:48.633Z,1.70
2019-04-27T23:59:24.620Z,1.43
